Hill Air Force Base
KHIF : rendu visible

Aérodrome :











RETROUVEZ-NOUS SUR...

 
LOGIN :

S'inscrire | Disclaimer

   EN    FR    IT 

 









Légende :    VFR   VFR Marginal   IFR   IFR Intensif   IFR Très Intensif
Visi : 
Plafond : 
>= 8 km
>= 3000ft
5 à 8 km
1000 à 3000 ft
1500m à 5 km
500 à 1000 ft
800 à 1500m
200 à 500 ft
< 800m
< 200 ft
Symboles :   Orages  Brouillard  Fortes neiges  Fortes précipitations  Vent > 20 kt






- Altitude de l'aérodrome : 4789 ft


KHIF - Hill Air Force Base

DERNIER METAR :
  • 231056Z AUTO 11014KT 10SM CLR 00/M09 A2996 RMK AO2 SLP141 T10011090

METARs EXPIRÉS :
  • 231040Z AUTO 04011G20KT 10SM CLR 00/M08 A2996 RMK AO2 WSHFT 40 SLP141
  • 230958Z AUTO 11011KT 10SM CLR 01/M08 A2996 RMK AO2 SLP141 T00101085
  • 230858Z AUTO 09010KT 10SM CLR 02/M08 A2996 RMK AO2 PK WND 06026/19 SLP141 T00191085 52004

TAF TAF KHIF
Valide du 22 à 22h jusqu'au 24 à 04h UTC


222200Z 2222/2404 34009KT 9999 SCT130 QNH2999INS
BECMG 2306/2307 11012G18KT 9999 BKN100 QNH3008INS
BECMG 2321/2322 35009KT 9999 BKN100 QNH3007INS TX07/2222Z TNM05/2314Z LAST NO AMDS AFT 2300 NEXT 2313



MET'MAP, la Météo Aéronautique d'un coup d'oeil ! - Copyright ORBIFLY Décembre 2007 - Disclaimer

ORBIFLY MET'MAP TEAM :

Programmation & Développement : Alexandra Zaïnal
Sur une idée originale de : Baudouin d'Aumeries
Assistance à la programmation : Marc-Olivier Méhu
Soutien technique & logistique : Manuel Goepfert

Contact : metmap@orbifly.com




SOURCES & CREDITS :

   NOAA       Earth
Advisory